createdAt,value
2022-10-06T00:01:39.175Z,16.20
2022-10-06T00:04:06.038Z,16.10
2022-10-06T00:06:33.538Z,16.10
2022-10-06T00:09:00.326Z,16.00
2022-10-06T00:11:27.371Z,16.00
2022-10-06T00:13:54.190Z,15.90
2022-10-06T00:16:24.643Z,15.90
2022-10-06T00:18:51.562Z,15.80
2022-10-06T00:21:18.638Z,15.80
2022-10-06T00:23:45.565Z,15.80
2022-10-06T00:26:17.205Z,15.70
2022-10-06T00:28:50.769Z,15.70
2022-10-06T00:31:19.957Z,15.70
2022-10-06T00:33:47.259Z,15.60
2022-10-06T00:36:14.307Z,15.60
2022-10-06T00:38:41.621Z,15.50
2022-10-06T00:41:10.287Z,15.50
2022-10-06T00:43:40.124Z,15.50
2022-10-06T00:46:11.854Z,15.50
2022-10-06T00:48:38.800Z,15.40
2022-10-06T00:51:05.824Z,15.40
2022-10-06T00:53:36.115Z,15.30
2022-10-06T00:56:02.968Z,15.30
2022-10-06T00:58:30.376Z,15.30
2022-10-06T01:00:57.808Z,15.30
2022-10-06T01:03:29.091Z,15.30
2022-10-06T01:05:56.383Z,15.20
2022-10-06T01:08:23.877Z,15.20
2022-10-06T01:10:50.677Z,15.10
2022-10-06T01:13:18.235Z,15.10
2022-10-06T01:15:50.634Z,15.10
2022-10-06T01:18:19.267Z,15.00
2022-10-06T01:20:49.403Z,15.00
2022-10-06T01:23:16.788Z,15.00
2022-10-06T01:25:44.399Z,14.90
2022-10-06T01:28:13.126Z,14.90
2022-10-06T01:30:43.549Z,14.90
2022-10-06T01:33:10.414Z,14.80
2022-10-06T01:35:37.576Z,14.80
2022-10-06T01:38:04.433Z,14.80
2022-10-06T01:40:31.541Z,14.70
2022-10-06T01:42:58.344Z,14.70
2022-10-06T01:45:25.173Z,14.70
2022-10-06T01:47:52.994Z,14.70
2022-10-06T01:50:20.098Z,14.60
2022-10-06T01:52:46.924Z,14.60
2022-10-06T01:55:14.855Z,14.50
2022-10-06T01:57:42.218Z,14.50
2022-10-06T02:00:09.840Z,14.50
2022-10-06T02:02:36.731Z,14.40
2022-10-06T02:05:04.037Z,14.40
2022-10-06T02:07:30.901Z,14.30
2022-10-06T02:09:57.783Z,14.30
2022-10-06T02:12:24.714Z,14.30
2022-10-06T02:14:51.571Z,14.20
2022-10-06T02:17:18.496Z,14.20
2022-10-06T02:19:45.358Z,14.20
2022-10-06T02:22:12.194Z,14.20
2022-10-06T02:24:39.024Z,14.10
2022-10-06T02:27:07.048Z,14.10
2022-10-06T02:29:34.013Z,14.10
2022-10-06T02:32:01.062Z,14.10
2022-10-06T02:34:27.966Z,14.00
2022-10-06T02:36:54.801Z,14.00
2022-10-06T02:39:21.605Z,14.00
2022-10-06T02:41:48.444Z,14.00
2022-10-06T02:44:15.523Z,13.90
2022-10-06T02:46:42.467Z,13.90
2022-10-06T02:49:09.365Z,13.90
2022-10-06T02:51:36.182Z,13.80
2022-10-06T02:54:03.071Z,13.80
2022-10-06T02:56:29.926Z,13.80
2022-10-06T02:58:56.831Z,13.80
2022-10-06T03:01:27.634Z,13.80
2022-10-06T03:03:54.984Z,13.70
2022-10-06T03:06:23.528Z,13.70
2022-10-06T03:08:50.587Z,13.70
2022-10-06T03:11:19.642Z,13.70
2022-10-06T03:13:46.997Z,13.70
2022-10-06T03:16:18.019Z,13.70
2022-10-06T03:18:49.525Z,13.70
2022-10-06T03:21:20.622Z,13.60
2022-10-06T03:23:48.698Z,13.60
2022-10-06T03:26:17.847Z,13.60
2022-10-06T03:28:45.318Z,13.60
2022-10-06T03:31:12.582Z,13.60
2022-10-06T03:33:39.770Z,13.50
2022-10-06T03:36:07.930Z,13.50
2022-10-06T03:38:35.224Z,13.50
2022-10-06T03:41:06.122Z,13.50
2022-10-06T03:43:33.439Z,13.50
2022-10-06T03:46:03.915Z,13.50
2022-10-06T03:48:32.157Z,13.40
2022-10-06T03:51:10.712Z,13.40
2022-10-06T03:53:38.302Z,13.40
2022-10-06T03:56:09.786Z,13.40
2022-10-06T03:58:37.766Z,13.40
2022-10-06T04:01:04.627Z,13.30
2022-10-06T04:03:32.019Z,13.30
2022-10-06T04:06:00.494Z,13.30
2022-10-06T04:08:31.422Z,13.20
2022-10-06T04:11:08.653Z,13.20
2022-10-06T04:13:35.949Z,13.20
2022-10-06T04:16:15.111Z,13.20
2022-10-06T04:18:42.903Z,13.20
2022-10-06T04:21:10.263Z,13.20
2022-10-06T04:23:37.407Z,13.10
2022-10-06T04:26:06.640Z,13.10
2022-10-06T04:28:33.927Z,13.10
2022-10-06T04:31:01.739Z,13.00
2022-10-06T04:33:28.748Z,13.00
2022-10-06T04:35:59.809Z,13.00
2022-10-06T04:38:29.064Z,12.90
2022-10-06T04:40:57.742Z,12.90
2022-10-06T04:43:25.358Z,12.90
2022-10-06T04:45:59.191Z,12.90
2022-10-06T04:48:27.201Z,12.90
2022-10-06T04:50:55.777Z,12.90
2022-10-06T04:53:22.755Z,12.80
2022-10-06T04:55:57.956Z,12.80
2022-10-06T04:58:24.941Z,12.80
2022-10-06T05:00:52.074Z,12.80
2022-10-06T05:03:19.261Z,12.70
2022-10-06T05:05:46.181Z,12.70
2022-10-06T05:08:13.028Z,12.70
2022-10-06T05:10:39.925Z,12.70
2022-10-06T05:13:06.775Z,12.70
2022-10-06T05:15:34.098Z,12.70
2022-10-06T05:18:00.939Z,12.70
2022-10-06T05:20:27.804Z,12.60
2022-10-06T05:22:54.690Z,12.60
2022-10-06T05:25:21.595Z,12.60
2022-10-06T05:27:48.432Z,12.60
2022-10-06T05:30:15.338Z,12.60
2022-10-06T05:32:46.450Z,12.60
2022-10-06T05:35:13.286Z,12.50
2022-10-06T05:37:40.153Z,12.50
2022-10-06T05:40:07.277Z,12.50
2022-10-06T05:42:34.280Z,12.50
2022-10-06T05:45:01.154Z,12.50
2022-10-06T05:47:27.987Z,12.50
2022-10-06T05:49:54.866Z,12.40
2022-10-06T05:52:21.708Z,12.50
2022-10-06T05:54:48.527Z,12.40
2022-10-06T05:57:15.679Z,12.40
2022-10-06T05:59:43.239Z,12.40
2022-10-06T06:02:10.160Z,12.30
2022-10-06T06:04:37.070Z,12.40
2022-10-06T06:07:03.861Z,12.30
2022-10-06T06:09:30.702Z,12.30
2022-10-06T06:11:58.804Z,12.30
2022-10-06T06:14:44.393Z,12.30
2022-10-06T06:17:11.723Z,12.30
2022-10-06T06:19:38.588Z,12.30
2022-10-06T06:22:05.426Z,12.30
2022-10-06T06:24:32.265Z,12.30
2022-10-06T06:26:59.297Z,12.30
2022-10-06T06:29:26.117Z,12.30
2022-10-06T06:31:52.993Z,12.40
2022-10-06T06:34:19.903Z,12.40
2022-10-06T06:36:52.275Z,12.40
2022-10-06T06:39:20.135Z,12.40
2022-10-06T06:41:47.395Z,12.40
2022-10-06T06:44:14.556Z,12.50
2022-10-06T06:46:43.618Z,12.50
2022-10-06T06:49:12.232Z,12.50
2022-10-06T06:51:40.489Z,12.60
2022-10-06T06:54:08.359Z,12.60
2022-10-06T06:56:35.616Z,12.70
2022-10-06T06:59:12.118Z,12.70
2022-10-06T07:01:41.567Z,12.80
2022-10-06T07:04:08.766Z,12.80
2022-10-06T07:06:37.125Z,12.80
2022-10-06T07:09:04.291Z,12.90
2022-10-06T07:11:32.319Z,13.00
2022-10-06T07:14:01.531Z,13.00
2022-10-06T07:16:48.002Z,13.00
2022-10-06T07:19:34.161Z,13.10
2022-10-06T07:22:20.722Z,13.10
2022-10-06T07:25:06.452Z,13.20
2022-10-06T07:27:43.571Z,13.30
2022-10-06T07:30:11.767Z,13.40
2022-10-06T07:32:38.791Z,13.50
2022-10-06T07:35:06.652Z,13.50
2022-10-06T07:37:35.364Z,13.50
2022-10-06T07:40:02.713Z,13.60
2022-10-06T07:42:29.561Z,13.60
2022-10-06T07:45:15.037Z,13.70
2022-10-06T07:47:41.974Z,13.70
2022-10-06T07:50:09.034Z,13.80
2022-10-06T07:52:39.509Z,13.90
2022-10-06T07:55:07.054Z,14.00
2022-10-06T07:57:35.500Z,14.00
2022-10-06T08:00:05.702Z,14.10
2022-10-06T08:02:35.618Z,14.10
2022-10-06T08:05:03.845Z,14.20
2022-10-06T08:07:30.660Z,14.30
2022-10-06T08:09:57.500Z,14.40
2022-10-06T08:12:33.578Z,14.40
2022-10-06T08:15:06.985Z,14.50
2022-10-06T08:17:35.498Z,14.60
2022-10-06T08:20:02.371Z,14.60
2022-10-06T08:22:30.307Z,14.70
2022-10-06T08:25:05.908Z,14.70
2022-10-06T08:27:35.110Z,14.80
2022-10-06T08:30:02.227Z,14.90
2022-10-06T08:32:29.155Z,15.00
2022-10-06T08:34:56.483Z,15.00
2022-10-06T08:37:27.506Z,15.10
2022-10-06T08:39:54.812Z,15.10
2022-10-06T08:42:34.024Z,15.20
2022-10-06T08:45:03.302Z,15.30
2022-10-06T08:47:34.189Z,15.30
2022-10-06T08:50:01.468Z,15.40
2022-10-06T08:52:38.592Z,15.50
2022-10-06T08:55:14.469Z,15.50
2022-10-06T08:57:41.292Z,15.60
2022-10-06T09:00:12.353Z,15.70
2022-10-06T09:02:42.839Z,15.80
2022-10-06T09:05:12.271Z,15.80
2022-10-06T09:07:59.513Z,15.90
2022-10-06T09:10:26.281Z,15.90
2022-10-06T09:12:56.168Z,16.00
2022-10-06T09:15:46.978Z,16.10
2022-10-06T09:18:29.166Z,16.10
2022-10-06T09:21:07.106Z,16.20
2022-10-06T09:23:50.512Z,16.20
2022-10-06T09:26:19.167Z,16.30
2022-10-06T09:28:46.634Z,16.40
2022-10-06T09:31:21.982Z,16.40
2022-10-06T09:33:51.625Z,16.50
2022-10-06T09:36:18.629Z,16.50
2022-10-06T09:38:53.821Z,16.50
2022-10-06T09:41:34.307Z,16.60
2022-10-06T09:44:21.003Z,16.60
2022-10-06T09:46:47.846Z,16.60
2022-10-06T09:49:19.194Z,16.70
2022-10-06T09:51:58.067Z,16.80
2022-10-06T09:54:24.886Z,16.80
2022-10-06T09:56:54.209Z,16.80
2022-10-06T09:59:29.852Z,16.90
2022-10-06T10:01:57.992Z,16.90
2022-10-06T10:04:26.876Z,17.00
2022-10-06T10:06:54.025Z,17.00
2022-10-06T10:09:26.120Z,17.10
2022-10-06T10:12:25.462Z,17.10
2022-10-06T10:14:53.071Z,17.20
2022-10-06T10:17:34.724Z,17.30
2022-10-06T10:20:02.887Z,17.30
2022-10-06T10:22:40.025Z,17.30
2022-10-06T10:25:07.019Z,17.40
2022-10-06T10:27:34.092Z,17.30
2022-10-06T10:30:11.739Z,17.40
2022-10-06T10:32:43.162Z,17.50
2022-10-06T10:35:16.770Z,17.60
2022-10-06T10:38:03.849Z,17.60
2022-10-06T10:40:30.699Z,17.60
2022-10-06T10:43:17.610Z,17.70
2022-10-06T10:45:50.518Z,17.70
2022-10-06T10:48:27.884Z,17.70
2022-10-06T10:51:01.687Z,17.80
2022-10-06T10:53:31.515Z,17.80
2022-10-06T10:55:59.597Z,17.90
2022-10-06T10:58:32.135Z,18.00
2022-10-06T11:01:05.408Z,18.00
2022-10-06T11:03:32.385Z,18.10
2022-10-06T11:06:28.657Z,18.20
2022-10-06T11:09:15.731Z,18.20
2022-10-06T11:11:52.049Z,18.30
2022-10-06T11:14:25.187Z,18.30
2022-10-06T11:17:04.448Z,18.40
2022-10-06T11:19:39.638Z,18.50
2022-10-06T11:22:11.066Z,18.50
2022-10-06T11:24:40.779Z,18.50
2022-10-06T11:27:20.386Z,18.60
2022-10-06T11:30:02.408Z,18.70
2022-10-06T11:32:44.281Z,18.80
2022-10-06T11:35:18.491Z,18.90
2022-10-06T11:38:20.730Z,19.00
2022-10-06T11:40:48.032Z,19.10
2022-10-06T11:43:35.593Z,19.20
2022-10-06T11:46:21.146Z,19.20
2022-10-06T11:48:48.278Z,19.40
2022-10-06T11:51:24.022Z,19.50
2022-10-06T11:53:51.468Z,19.50
2022-10-06T11:56:18.275Z,19.50
2022-10-06T11:58:51.017Z,19.50
2022-10-06T12:01:33.879Z,19.60
2022-10-06T12:04:09.420Z,19.70
2022-10-06T12:06:42.069Z,19.70
2022-10-06T12:09:24.108Z,19.80
2022-10-06T12:11:52.280Z,19.80
2022-10-06T12:17:21.285Z,19.80
2022-10-06T12:19:51.401Z,19.80
2022-10-06T12:22:37.342Z,20.00
2022-10-06T12:25:04.227Z,20.00
2022-10-06T12:27:49.622Z,20.00
2022-10-06T12:30:17.013Z,20.00
2022-10-06T12:33:05.945Z,20.10
2022-10-06T12:35:34.412Z,20.10
2022-10-06T12:38:06.173Z,20.20
2022-10-06T12:40:47.219Z,20.30
2022-10-06T12:43:21.155Z,20.40
2022-10-06T12:45:48.026Z,20.50
2022-10-06T12:48:18.252Z,20.50
2022-10-06T12:50:45.367Z,20.60
2022-10-06T12:53:16.467Z,20.60
2022-10-06T12:55:46.266Z,20.70
2022-10-06T12:58:20.057Z,20.70
2022-10-06T13:00:47.361Z,20.70
2022-10-06T13:03:24.525Z,20.80
2022-10-06T13:05:52.970Z,20.80
2022-10-06T13:08:24.224Z,20.90
2022-10-06T13:10:51.243Z,20.90
2022-10-06T13:13:24.535Z,20.90
2022-10-06T13:16:00.754Z,21.10
2022-10-06T13:18:27.830Z,21.20
2022-10-06T13:20:58.822Z,21.20
2022-10-06T13:23:36.829Z,21.30
2022-10-06T13:26:08.715Z,21.40
2022-10-06T13:28:44.766Z,21.50
2022-10-06T13:31:20.198Z,21.60
2022-10-06T13:33:48.731Z,21.50
2022-10-06T13:36:15.654Z,21.50
2022-10-06T13:38:42.663Z,21.50
2022-10-06T13:41:18.986Z,21.60
2022-10-06T13:43:53.807Z,21.60
2022-10-06T13:46:24.357Z,21.50
2022-10-06T13:48:53.055Z,21.60
2022-10-06T13:51:21.916Z,21.70
2022-10-06T13:53:49.413Z,21.70
2022-10-06T13:56:36.078Z,21.80
2022-10-06T13:59:23.240Z,21.80
2022-10-06T14:01:50.198Z,21.80
2022-10-06T14:04:20.808Z,21.90
2022-10-06T14:06:51.996Z,21.90
2022-10-06T14:09:26.234Z,21.90
2022-10-06T14:11:54.209Z,22.00
2022-10-06T14:14:21.126Z,22.10
2022-10-06T14:16:50.030Z,22.10
2022-10-06T14:19:29.560Z,22.10
2022-10-06T14:21:56.441Z,22.10
2022-10-06T14:24:24.039Z,22.10
2022-10-06T14:26:50.925Z,22.20
2022-10-06T14:29:18.148Z,22.10
2022-10-06T14:31:45.489Z,22.10
2022-10-06T14:34:16.587Z,22.10
2022-10-06T14:36:47.895Z,22.10
2022-10-06T14:39:15.509Z,22.20
2022-10-06T14:41:42.398Z,22.30
2022-10-06T14:44:10.634Z,22.40
2022-10-06T14:46:38.410Z,22.50
2022-10-06T14:49:06.113Z,22.40
2022-10-06T14:51:36.587Z,22.40
2022-10-06T14:54:05.024Z,22.40
2022-10-06T14:56:32.820Z,22.40
2022-10-06T14:59:00.944Z,22.30
2022-10-06T15:01:32.356Z,22.50
2022-10-06T15:04:00.386Z,22.50
2022-10-06T15:06:46.293Z,22.60
2022-10-06T15:09:13.522Z,22.60
2022-10-06T15:11:40.656Z,22.50
2022-10-06T15:14:10.827Z,22.40
2022-10-06T15:16:40.845Z,22.30
2022-10-06T15:19:09.417Z,22.30
2022-10-06T15:21:39.914Z,22.30
2022-10-06T15:24:07.539Z,22.30
2022-10-06T15:26:53.123Z,22.20
2022-10-06T15:29:20.029Z,22.20
2022-10-06T15:31:52.351Z,22.30
2022-10-06T15:34:21.146Z,22.20
2022-10-06T15:36:52.389Z,22.10
2022-10-06T15:39:20.422Z,22.20
2022-10-06T15:41:47.430Z,22.20
2022-10-06T15:44:15.027Z,22.30
2022-10-06T15:46:46.768Z,22.40
2022-10-06T15:49:14.590Z,22.40
2022-10-06T15:51:45.460Z,22.40
2022-10-06T15:54:12.874Z,22.50
2022-10-06T15:56:39.773Z,22.60
2022-10-06T15:59:06.889Z,22.60
2022-10-06T16:01:35.489Z,22.50
2022-10-06T16:04:11.030Z,22.50
2022-10-06T16:06:48.902Z,22.50
2022-10-06T16:09:17.103Z,22.50
2022-10-06T16:11:44.309Z,22.40
2022-10-06T16:14:11.165Z,22.50
2022-10-06T16:16:43.338Z,22.50
2022-10-06T16:19:10.987Z,22.50
2022-10-06T16:21:38.193Z,22.60
2022-10-06T16:24:05.145Z,22.60
2022-10-06T16:26:32.080Z,22.60
2022-10-06T16:28:58.906Z,22.50
2022-10-06T16:31:25.991Z,22.50
2022-10-06T16:33:53.005Z,22.40
2022-10-06T16:36:20.221Z,22.30
2022-10-06T16:38:49.616Z,22.30
2022-10-06T16:41:16.970Z,22.20
2022-10-06T16:43:44.464Z,22.10
2022-10-06T16:46:11.492Z,22.10
2022-10-06T16:48:39.893Z,21.90
2022-10-06T16:51:10.888Z,21.80
2022-10-06T16:53:38.977Z,21.60
2022-10-06T16:56:06.621Z,21.40
2022-10-06T16:58:43.976Z,21.30
2022-10-06T17:01:11.220Z,21.00
2022-10-06T17:03:38.474Z,20.90
2022-10-06T17:06:08.642Z,20.60
2022-10-06T17:08:36.225Z,20.40
2022-10-06T17:11:14.238Z,20.30
2022-10-06T17:13:42.711Z,20.10
2022-10-06T17:16:11.111Z,19.90
2022-10-06T17:18:38.357Z,19.80
2022-10-06T17:21:25.930Z,19.70
2022-10-06T17:23:57.701Z,19.60
2022-10-06T17:26:27.641Z,19.40
2022-10-06T17:29:01.756Z,19.20
2022-10-06T17:31:30.003Z,19.10
2022-10-06T17:33:57.135Z,18.90
2022-10-06T17:36:25.605Z,18.80
2022-10-06T17:38:53.656Z,18.60
2022-10-06T17:41:22.286Z,18.50
2022-10-06T17:43:49.951Z,18.40
2022-10-06T17:46:19.160Z,18.30
2022-10-06T17:48:47.411Z,18.20
2022-10-06T17:51:15.068Z,18.10
2022-10-06T17:53:42.936Z,18.00
2022-10-06T17:56:11.475Z,17.90
2022-10-06T17:58:38.949Z,17.80
2022-10-06T18:01:07.436Z,17.60
2022-10-06T18:03:38.184Z,17.50
2022-10-06T18:06:05.445Z,17.40
2022-10-06T18:08:32.842Z,17.30
2022-10-06T18:11:19.369Z,17.20
2022-10-06T18:13:48.231Z,17.10
2022-10-06T18:16:16.472Z,17.00
2022-10-06T18:18:44.987Z,16.90
2022-10-06T18:21:12.305Z,16.70
2022-10-06T18:23:39.179Z,16.60
2022-10-06T18:26:06.747Z,16.50
2022-10-06T18:28:33.713Z,16.50
2022-10-06T18:31:00.625Z,16.50
2022-10-06T18:36:15.640Z,16.30
2022-10-06T18:38:44.283Z,16.20
2022-10-06T18:41:14.351Z,16.20
2022-10-06T18:43:41.599Z,16.10
2022-10-06T18:46:28.807Z,16.00
2022-10-06T18:48:55.954Z,16.00
2022-10-06T18:51:24.064Z,15.90
2022-10-06T18:53:51.079Z,15.80
2022-10-06T18:56:17.859Z,15.80
2022-10-06T18:58:45.003Z,15.70
2022-10-06T19:01:12.712Z,15.60
2022-10-06T19:03:39.726Z,15.60
2022-10-06T19:06:07.006Z,15.40
2022-10-06T19:08:34.430Z,15.40
2022-10-06T19:11:23.798Z,15.30
2022-10-06T19:13:52.358Z,15.30
2022-10-06T19:16:22.421Z,15.20
2022-10-06T19:18:49.751Z,15.10
2022-10-06T19:21:16.570Z,15.00
2022-10-06T19:23:43.420Z,15.10
2022-10-06T19:26:11.367Z,15.00
2022-10-06T19:28:38.733Z,15.00
2022-10-06T19:31:08.256Z,14.90
2022-10-06T19:33:35.776Z,14.90
2022-10-06T19:36:03.572Z,14.90
2022-10-06T19:38:30.519Z,14.80
2022-10-06T19:41:17.367Z,14.80
2022-10-06T19:43:44.305Z,14.80
2022-10-06T19:46:11.288Z,14.80
2022-10-06T19:48:38.254Z,14.80
2022-10-06T19:51:15.760Z,14.70
2022-10-06T19:53:45.323Z,14.70
2022-10-06T19:56:12.138Z,14.60
2022-10-06T19:58:39.062Z,14.60
2022-10-06T20:01:06.296Z,14.60
2022-10-06T20:03:39.586Z,14.50
2022-10-06T20:06:08.259Z,14.50
2022-10-06T20:08:35.541Z,14.50
2022-10-06T20:11:06.478Z,14.50
2022-10-06T20:13:34.638Z,14.50
2022-10-06T20:16:02.272Z,14.40
2022-10-06T20:18:29.250Z,14.40
2022-10-06T20:20:59.013Z,14.40
2022-10-06T20:23:26.103Z,14.40
2022-10-06T20:25:53.081Z,14.30
2022-10-06T20:28:19.936Z,14.20
2022-10-06T20:30:50.404Z,14.20
2022-10-06T20:33:17.567Z,14.20
2022-10-06T20:35:46.056Z,14.10
2022-10-06T20:38:13.096Z,14.10
2022-10-06T20:40:43.794Z,14.10
2022-10-06T20:43:10.651Z,14.00
2022-10-06T20:45:37.484Z,14.00
2022-10-06T20:48:04.326Z,13.90
2022-10-06T20:50:31.370Z,13.90
2022-10-06T20:52:58.717Z,13.90
2022-10-06T20:55:25.679Z,13.80
2022-10-06T20:57:52.575Z,13.70
2022-10-06T21:00:19.453Z,13.70
2022-10-06T21:02:46.396Z,13.60
2022-10-06T21:05:13.257Z,13.70
2022-10-06T21:07:40.182Z,13.60
2022-10-06T21:10:07.428Z,13.60
2022-10-06T21:12:34.257Z,13.50
2022-10-06T21:15:01.078Z,13.50
2022-10-06T21:17:27.961Z,13.50
2022-10-06T21:19:54.903Z,13.50
2022-10-06T21:22:21.740Z,13.40
2022-10-06T21:24:48.630Z,13.40
2022-10-06T21:27:18.415Z,13.30
2022-10-06T21:29:45.306Z,13.30
2022-10-06T21:32:12.161Z,13.30
2022-10-06T21:34:40.356Z,13.20
2022-10-06T21:37:07.309Z,13.20
2022-10-06T21:39:34.118Z,13.20
2022-10-06T21:42:01.016Z,13.10
2022-10-06T21:44:27.796Z,13.10
2022-10-06T21:46:56.037Z,13.00
2022-10-06T21:49:24.321Z,13.00
2022-10-06T21:51:52.417Z,13.00
2022-10-06T21:54:19.893Z,12.90
2022-10-06T21:56:46.667Z,12.90
2022-10-06T21:59:13.487Z,12.90
2022-10-06T22:01:42.039Z,12.90
2022-10-06T22:04:09.142Z,12.80
2022-10-06T22:06:36.773Z,12.80
2022-10-06T22:09:04.741Z,12.80
2022-10-06T22:11:32.654Z,12.70
2022-10-06T22:14:00.949Z,12.70
2022-10-06T22:16:29.821Z,12.70
2022-10-06T22:18:56.796Z,12.70
2022-10-06T22:21:27.844Z,12.70
2022-10-06T22:23:59.143Z,12.60
2022-10-06T22:26:26.568Z,12.50
2022-10-06T22:28:55.963Z,12.50
2022-10-06T22:31:25.951Z,12.50
2022-10-06T22:33:57.221Z,12.50
2022-10-06T22:36:24.510Z,12.40
2022-10-06T22:38:51.430Z,12.40
2022-10-06T22:41:18.460Z,12.40
2022-10-06T22:43:45.500Z,12.40
2022-10-06T22:46:12.793Z,12.30
2022-10-06T22:48:40.355Z,12.30
2022-10-06T22:51:07.499Z,12.30
2022-10-06T22:53:34.713Z,12.20
2022-10-06T22:56:02.284Z,12.20
2022-10-06T22:58:29.419Z,12.20
2022-10-06T23:00:56.584Z,12.20
2022-10-06T23:03:24.126Z,12.20
2022-10-06T23:05:55.606Z,12.10
2022-10-06T23:08:22.621Z,12.10
2022-10-06T23:10:49.712Z,12.10
2022-10-06T23:13:16.534Z,12.10
2022-10-06T23:15:43.966Z,12.00
2022-10-06T23:18:11.016Z,12.00
2022-10-06T23:20:38.437Z,12.00
2022-10-06T23:23:05.455Z,11.90
2022-10-06T23:25:35.970Z,11.90
2022-10-06T23:28:02.864Z,11.90
2022-10-06T23:30:29.671Z,11.90
2022-10-06T23:32:56.567Z,11.90
2022-10-06T23:35:23.419Z,11.80
2022-10-06T23:37:50.246Z,11.80
2022-10-06T23:40:17.196Z,11.70
2022-10-06T23:42:44.373Z,11.70
2022-10-06T23:45:11.307Z,11.70
2022-10-06T23:47:38.265Z,11.70
2022-10-06T23:50:05.330Z,11.70
2022-10-06T23:52:32.185Z,11.70
2022-10-06T23:54:59.128Z,11.70
2022-10-06T23:57:25.941Z,11.60
2022-10-06T23:59:52.809Z,11.60
